sensor_id;sensor_type;location;lat;lon;timestamp;P1;durP1;ratioP1;P2;durP2;ratioP2
20348;SDS011;10332;50.208;18.988;2023-04-07T00:02:11;44.40;;;27.77;;
20348;SDS011;10332;50.208;18.988;2023-04-07T00:04:39;47.88;;;30.63;;
20348;SDS011;10332;50.208;18.988;2023-04-07T00:07:07;55.38;;;31.55;;
20348;SDS011;10332;50.208;18.988;2023-04-07T00:09:35;56.90;;;34.33;;
20348;SDS011;10332;50.208;18.988;2023-04-07T00:12:03;56.88;;;33.03;;
20348;SDS011;10332;50.208;18.988;2023-04-07T00:14:30;59.60;;;33.15;;
20348;SDS011;10332;50.208;18.988;2023-04-07T00:16:58;53.92;;;32.28;;
20348;SDS011;10332;50.208;18.988;2023-04-07T00:19:26;55.03;;;32.90;;
20348;SDS011;10332;50.208;18.988;2023-04-07T00:21:53;48.60;;;29.75;;
20348;SDS011;10332;50.208;18.988;2023-04-07T00:24:21;51.83;;;31.13;;
20348;SDS011;10332;50.208;18.988;2023-04-07T00:26:59;51.15;;;30.15;;
20348;SDS011;10332;50.208;18.988;2023-04-07T00:29:27;52.07;;;30.97;;
20348;SDS011;10332;50.208;18.988;2023-04-07T00:31:54;51.40;;;30.35;;
20348;SDS011;10332;50.208;18.988;2023-04-07T00:34:22;48.97;;;28.40;;
20348;SDS011;10332;50.208;18.988;2023-04-07T00:36:49;53.10;;;31.20;;
20348;SDS011;10332;50.208;18.988;2023-04-07T00:39:18;47.70;;;30.27;;
20348;SDS011;10332;50.208;18.988;2023-04-07T00:41:47;45.78;;;28.65;;
20348;SDS011;10332;50.208;18.988;2023-04-07T00:44:15;51.80;;;31.20;;
20348;SDS011;10332;50.208;18.988;2023-04-07T00:46:42;53.65;;;31.60;;
20348;SDS011;10332;50.208;18.988;2023-04-07T00:49:10;49.17;;;28.98;;
20348;SDS011;10332;50.208;18.988;2023-04-07T00:51:38;52.63;;;31.60;;
20348;SDS011;10332;50.208;18.988;2023-04-07T00:54:06;48.25;;;29.60;;
20348;SDS011;10332;50.208;18.988;2023-04-07T00:56:35;42.50;;;26.50;;
20348;SDS011;10332;50.208;18.988;2023-04-07T00:59:03;48.60;;;29.27;;
20348;SDS011;10332;50.208;18.988;2023-04-07T01:01:44;48.08;;;29.80;;
20348;SDS011;10332;50.208;18.988;2023-04-07T01:08:12;44.40;;;26.92;;
20348;SDS011;10332;50.208;18.988;2023-04-07T01:11:07;47.83;;;28.52;;
20348;SDS011;10332;50.208;18.988;2023-04-07T01:13:49;47.30;;;28.27;;
20348;SDS011;10332;50.208;18.988;2023-04-07T01:16:23;42.38;;;26.48;;
20348;SDS011;10332;50.208;18.988;2023-04-07T01:21:55;49.85;;;30.33;;
20348;SDS011;10332;50.208;18.988;2023-04-07T01:27:27;44.47;;;28.15;;
20348;SDS011;10332;50.208;18.988;2023-04-07T01:30:21;48.83;;;29.70;;
20348;SDS011;10332;50.208;18.988;2023-04-07T01:32:55;43.85;;;27.00;;
20348;SDS011;10332;50.208;18.988;2023-04-07T01:35:29;40.38;;;24.90;;
20348;SDS011;10332;50.208;18.988;2023-04-07T01:38:02;47.65;;;29.40;;
20348;SDS011;10332;50.208;18.988;2023-04-07T01:40:31;40.85;;;25.73;;
20348;SDS011;10332;50.208;18.988;2023-04-07T01:43:01;40.90;;;24.70;;
20348;SDS011;10332;50.208;18.988;2023-04-07T01:45:29;38.20;;;24.63;;
20348;SDS011;10332;50.208;18.988;2023-04-07T01:48:03;48.20;;;28.40;;
20348;SDS011;10332;50.208;18.988;2023-04-07T01:50:33;41.70;;;24.52;;
20348;SDS011;10332;50.208;18.988;2023-04-07T01:53:01;45.70;;;28.08;;
20348;SDS011;10332;50.208;18.988;2023-04-07T01:55:31;37.97;;;23.45;;
20348;SDS011;10332;50.208;18.988;2023-04-07T01:58:02;42.72;;;25.58;;
20348;SDS011;10332;50.208;18.988;2023-04-07T02:00:33;41.55;;;25.38;;
20348;SDS011;10332;50.208;18.988;2023-04-07T02:03:05;41.20;;;25.00;;
20348;SDS011;10332;50.208;18.988;2023-04-07T02:05:47;42.55;;;24.92;;
20348;SDS011;10332;50.208;18.988;2023-04-07T02:08:20;36.80;;;23.80;;
20348;SDS011;10332;50.208;18.988;2023-04-07T02:10:53;34.03;;;20.92;;
20348;SDS011;10332;50.208;18.988;2023-04-07T02:13:23;36.33;;;22.73;;
20348;SDS011;10332;50.208;18.988;2023-04-07T02:15:52;40.03;;;24.55;;
20348;SDS011;10332;50.208;18.988;2023-04-07T02:18:22;37.30;;;22.98;;
20348;SDS011;10332;50.208;18.988;2023-04-07T02:20:53;37.13;;;23.35;;
20348;SDS011;10332;50.208;18.988;2023-04-07T02:23:23;40.78;;;25.05;;
20348;SDS011;10332;50.208;18.988;2023-04-07T02:25:50;37.65;;;24.73;;
20348;SDS011;10332;50.208;18.988;2023-04-07T02:28:22;41.53;;;24.98;;
20348;SDS011;10332;50.208;18.988;2023-04-07T02:30:49;42.42;;;26.55;;
20348;SDS011;10332;50.208;18.988;2023-04-07T02:33:36;41.00;;;25.20;;
20348;SDS011;10332;50.208;18.988;2023-04-07T02:36:04;42.00;;;25.08;;
20348;SDS011;10332;50.208;18.988;2023-04-07T02:38:31;38.80;;;23.15;;
20348;SDS011;10332;50.208;18.988;2023-04-07T02:40:59;41.20;;;24.53;;
20348;SDS011;10332;50.208;18.988;2023-04-07T02:43:26;41.00;;;23.85;;
20348;SDS011;10332;50.208;18.988;2023-04-07T02:45:54;39.40;;;23.75;;
20348;SDS011;10332;50.208;18.988;2023-04-07T02:48:22;41.17;;;24.00;;
20348;SDS011;10332;50.208;18.988;2023-04-07T02:50:49;41.95;;;23.35;;
20348;SDS011;10332;50.208;18.988;2023-04-07T02:53:17;39.78;;;23.55;;
20348;SDS011;10332;50.208;18.988;2023-04-07T02:55:44;39.47;;;24.35;;
20348;SDS011;10332;50.208;18.988;2023-04-07T02:58:12;39.85;;;24.42;;
20348;SDS011;10332;50.208;18.988;2023-04-07T03:00:39;40.15;;;24.13;;
20348;SDS011;10332;50.208;18.988;2023-04-07T03:03:07;42.17;;;25.13;;
20348;SDS011;10332;50.208;18.988;2023-04-07T03:05:34;40.78;;;24.45;;
20348;SDS011;10332;50.208;18.988;2023-04-07T03:08:02;40.00;;;23.27;;
20348;SDS011;10332;50.208;18.988;2023-04-07T03:10:29;30.50;;;18.98;;
20348;SDS011;10332;50.208;18.988;2023-04-07T03:12:57;41.00;;;24.08;;
20348;SDS011;10332;50.208;18.988;2023-04-07T03:15:24;38.78;;;22.80;;
20348;SDS011;10332;50.208;18.988;2023-04-07T03:17:52;41.33;;;24.35;;
20348;SDS011;10332;50.208;18.988;2023-04-07T03:20:19;36.00;;;21.85;;
20348;SDS011;10332;50.208;18.988;2023-04-07T03:22:47;38.30;;;22.30;;
20348;SDS011;10332;50.208;18.988;2023-04-07T03:25:14;41.67;;;24.02;;
20348;SDS011;10332;50.208;18.988;2023-04-07T03:27:42;46.28;;;27.08;;
20348;SDS011;10332;50.208;18.988;2023-04-07T03:30:10;40.97;;;24.73;;
20348;SDS011;10332;50.208;18.988;2023-04-07T03:32:37;38.72;;;23.65;;
20348;SDS011;10332;50.208;18.988;2023-04-07T03:35:05;40.22;;;24.13;;
20348;SDS011;10332;50.208;18.988;2023-04-07T03:37:33;37.67;;;22.92;;
20348;SDS011;10332;50.208;18.988;2023-04-07T03:40:00;40.55;;;24.15;;
20348;SDS011;10332;50.208;18.988;2023-04-07T03:42:28;37.95;;;23.52;;
20348;SDS011;10332;50.208;18.988;2023-04-07T03:44:56;43.25;;;23.83;;
20348;SDS011;10332;50.208;18.988;2023-04-07T03:47:23;41.80;;;23.85;;
20348;SDS011;10332;50.208;18.988;2023-04-07T03:49:51;38.43;;;23.13;;
20348;SDS011;10332;50.208;18.988;2023-04-07T03:52:18;40.70;;;23.88;;
20348;SDS011;10332;50.208;18.988;2023-04-07T03:54:46;40.00;;;23.35;;
20348;SDS011;10332;50.208;18.988;2023-04-07T03:57:13;37.08;;;22.02;;
20348;SDS011;10332;50.208;18.988;2023-04-07T03:59:41;44.28;;;23.83;;
20348;SDS011;10332;50.208;18.988;2023-04-07T04:02:08;42.87;;;23.10;;
20348;SDS011;10332;50.208;18.988;2023-04-07T04:04:36;36.78;;;22.25;;
20348;SDS011;10332;50.208;18.988;2023-04-07T04:07:04;42.97;;;24.40;;
20348;SDS011;10332;50.208;18.988;2023-04-07T04:09:31;38.15;;;22.98;;
20348;SDS011;10332;50.208;18.988;2023-04-07T04:11:59;40.83;;;23.45;;
20348;SDS011;10332;50.208;18.988;2023-04-07T04:14:26;39.55;;;22.05;;
20348;SDS011;10332;50.208;18.988;2023-04-07T04:16:54;37.28;;;22.15;;
20348;SDS011;10332;50.208;18.988;2023-04-07T04:19:21;37.33;;;22.63;;
20348;SDS011;10332;50.208;18.988;2023-04-07T04:21:49;37.58;;;21.63;;
20348;SDS011;10332;50.208;18.988;2023-04-07T04:24:16;36.97;;;21.83;;
20348;SDS011;10332;50.208;18.988;2023-04-07T04:26:43;40.33;;;23.30;;
20348;SDS011;10332;50.208;18.988;2023-04-07T04:29:11;38.08;;;20.98;;
20348;SDS011;10332;50.208;18.988;2023-04-07T04:31:38;37.47;;;21.55;;
20348;SDS011;10332;50.208;18.988;2023-04-07T04:34:06;38.80;;;22.40;;
20348;SDS011;10332;50.208;18.988;2023-04-07T04:36:33;35.90;;;20.63;;
20348;SDS011;10332;50.208;18.988;2023-04-07T04:39:03;35.13;;;21.48;;
20348;SDS011;10332;50.208;18.988;2023-04-07T04:41:31;37.47;;;22.35;;
20348;SDS011;10332;50.208;18.988;2023-04-07T04:43:58;34.33;;;19.17;;
20348;SDS011;10332;50.208;18.988;2023-04-07T04:46:26;39.95;;;22.08;;
20348;SDS011;10332;50.208;18.988;2023-04-07T04:48:53;34.58;;;20.10;;
20348;SDS011;10332;50.208;18.988;2023-04-07T04:51:21;39.13;;;22.10;;
20348;SDS011;10332;50.208;18.988;2023-04-07T04:53:48;37.53;;;22.30;;
20348;SDS011;10332;50.208;18.988;2023-04-07T04:56:16;37.70;;;22.42;;
20348;SDS011;10332;50.208;18.988;2023-04-07T04:58:43;46.42;;;24.63;;
20348;SDS011;10332;50.208;18.988;2023-04-07T05:01:14;38.80;;;22.27;;
20348;SDS011;10332;50.208;18.988;2023-04-07T05:03:42;40.92;;;23.38;;
20348;SDS011;10332;50.208;18.988;2023-04-07T05:06:10;47.23;;;25.37;;
20348;SDS011;10332;50.208;18.988;2023-04-07T05:08:37;47.60;;;26.13;;
20348;SDS011;10332;50.208;18.988;2023-04-07T05:11:05;43.60;;;25.42;;
20348;SDS011;10332;50.208;18.988;2023-04-07T05:13:32;45.72;;;25.73;;
20348;SDS011;10332;50.208;18.988;2023-04-07T05:16:00;44.63;;;24.95;;
20348;SDS011;10332;50.208;18.988;2023-04-07T05:18:27;48.97;;;26.20;;
20348;SDS011;10332;50.208;18.988;2023-04-07T05:20:55;49.60;;;26.20;;
20348;SDS011;10332;50.208;18.988;2023-04-07T05:23:22;52.25;;;26.92;;
20348;SDS011;10332;50.208;18.988;2023-04-07T05:25:50;42.42;;;23.52;;
20348;SDS011;10332;50.208;18.988;2023-04-07T05:28:17;43.95;;;23.33;;
20348;SDS011;10332;50.208;18.988;2023-04-07T05:30:45;38.80;;;22.58;;
20348;SDS011;10332;50.208;18.988;2023-04-07T05:33:13;43.80;;;24.42;;
20348;SDS011;10332;50.208;18.988;2023-04-07T05:35:44;41.35;;;23.65;;
20348;SDS011;10332;50.208;18.988;2023-04-07T05:38:12;41.53;;;22.67;;
20348;SDS011;10332;50.208;18.988;2023-04-07T05:40:40;43.20;;;23.63;;
20348;SDS011;10332;50.208;18.988;2023-04-07T05:43:07;39.33;;;22.33;;
20348;SDS011;10332;50.208;18.988;2023-04-07T05:45:35;54.88;;;28.67;;
20348;SDS011;10332;50.208;18.988;2023-04-07T05:48:02;47.78;;;26.65;;
20348;SDS011;10332;50.208;18.988;2023-04-07T05:50:30;50.85;;;28.45;;
20348;SDS011;10332;50.208;18.988;2023-04-07T05:52:57;42.45;;;24.45;;
20348;SDS011;10332;50.208;18.988;2023-04-07T05:55:25;38.40;;;23.20;;
20348;SDS011;10332;50.208;18.988;2023-04-07T05:57:52;41.58;;;22.08;;
20348;SDS011;10332;50.208;18.988;2023-04-07T06:00:20;35.60;;;20.00;;
20348;SDS011;10332;50.208;18.988;2023-04-07T06:02:47;32.10;;;18.55;;
20348;SDS011;10332;50.208;18.988;2023-04-07T06:05:15;28.90;;;17.30;;
20348;SDS011;10332;50.208;18.988;2023-04-07T06:07:43;29.50;;;16.80;;
20348;SDS011;10332;50.208;18.988;2023-04-07T06:10:11;29.33;;;17.38;;
20348;SDS011;10332;50.208;18.988;2023-04-07T06:12:38;28.30;;;16.80;;
20348;SDS011;10332;50.208;18.988;2023-04-07T06:15:06;25.60;;;16.00;;
20348;SDS011;10332;50.208;18.988;2023-04-07T06:17:34;30.73;;;18.27;;
20348;SDS011;10332;50.208;18.988;2023-04-07T06:20:01;28.38;;;16.67;;
20348;SDS011;10332;50.208;18.988;2023-04-07T06:22:29;27.50;;;15.45;;
20348;SDS011;10332;50.208;18.988;2023-04-07T06:24:57;28.95;;;16.33;;
20348;SDS011;10332;50.208;18.988;2023-04-07T06:27:24;25.95;;;15.35;;
20348;SDS011;10332;50.208;18.988;2023-04-07T06:29:52;38.90;;;20.27;;
20348;SDS011;10332;50.208;18.988;2023-04-07T06:32:19;38.33;;;21.13;;
20348;SDS011;10332;50.208;18.988;2023-04-07T06:34:47;38.50;;;21.35;;
20348;SDS011;10332;50.208;18.988;2023-04-07T06:37:14;32.85;;;19.60;;
20348;SDS011;10332;50.208;18.988;2023-04-07T06:39:42;31.08;;;18.48;;
20348;SDS011;10332;50.208;18.988;2023-04-07T06:42:10;32.10;;;18.87;;
20348;SDS011;10332;50.208;18.988;2023-04-07T06:44:38;34.22;;;19.60;;
20348;SDS011;10332;50.208;18.988;2023-04-07T06:47:05;36.90;;;21.92;;
20348;SDS011;10332;50.208;18.988;2023-04-07T06:49:34;31.90;;;19.50;;
20348;SDS011;10332;50.208;18.988;2023-04-07T06:52:03;36.35;;;19.40;;
20348;SDS011;10332;50.208;18.988;2023-04-07T06:54:32;32.92;;;19.70;;
20348;SDS011;10332;50.208;18.988;2023-04-07T06:56:59;27.33;;;17.50;;
20348;SDS011;10332;50.208;18.988;2023-04-07T06:59:27;32.40;;;18.42;;
20348;SDS011;10332;50.208;18.988;2023-04-07T07:01:54;31.52;;;18.33;;
20348;SDS011;10332;50.208;18.988;2023-04-07T07:04:22;30.63;;;16.38;;
20348;SDS011;10332;50.208;18.988;2023-04-07T07:06:50;26.20;;;15.90;;
20348;SDS011;10332;50.208;18.988;2023-04-07T07:09:17;29.83;;;18.02;;
20348;SDS011;10332;50.208;18.988;2023-04-07T07:11:45;26.85;;;17.65;;
20348;SDS011;10332;50.208;18.988;2023-04-07T07:14:13;30.25;;;17.80;;
20348;SDS011;10332;50.208;18.988;2023-04-07T07:16:40;26.65;;;16.73;;
20348;SDS011;10332;50.208;18.988;2023-04-07T07:19:08;27.13;;;17.70;;
20348;SDS011;10332;50.208;18.988;2023-04-07T07:21:35;30.63;;;18.15;;
20348;SDS011;10332;50.208;18.988;2023-04-07T07:24:03;25.42;;;16.40;;
20348;SDS011;10332;50.208;18.988;2023-04-07T07:26:31;27.17;;;15.05;;
20348;SDS011;10332;50.208;18.988;2023-04-07T07:28:58;30.30;;;17.98;;
20348;SDS011;10332;50.208;18.988;2023-04-07T07:31:26;27.45;;;16.60;;
20348;SDS011;10332;50.208;18.988;2023-04-07T07:33:54;24.52;;;15.57;;
20348;SDS011;10332;50.208;18.988;2023-04-07T07:36:21;26.80;;;16.98;;
20348;SDS011;10332;50.208;18.988;2023-04-07T07:38:49;25.83;;;16.13;;
20348;SDS011;10332;50.208;18.988;2023-04-07T07:41:23;28.17;;;16.38;;
20348;SDS011;10332;50.208;18.988;2023-04-07T07:43:52;26.58;;;16.58;;
20348;SDS011;10332;50.208;18.988;2023-04-07T07:46:19;23.60;;;15.10;;
20348;SDS011;10332;50.208;18.988;2023-04-07T07:48:47;25.05;;;15.75;;
20348;SDS011;10332;50.208;18.988;2023-04-07T07:51:14;26.30;;;16.08;;
20348;SDS011;10332;50.208;18.988;2023-04-07T07:53:42;23.13;;;14.20;;
20348;SDS011;10332;50.208;18.988;2023-04-07T07:56:10;28.85;;;18.98;;
20348;SDS011;10332;50.208;18.988;2023-04-07T07:58:38;31.95;;;19.90;;
20348;SDS011;10332;50.208;18.988;2023-04-07T08:01:05;38.05;;;23.17;;
20348;SDS011;10332;50.208;18.988;2023-04-07T08:03:33;34.63;;;22.00;;
20348;SDS011;10332;50.208;18.988;2023-04-07T08:06:01;34.03;;;21.55;;
20348;SDS011;10332;50.208;18.988;2023-04-07T08:08:29;68.00;;;39.95;;
20348;SDS011;10332;50.208;18.988;2023-04-07T08:10:56;35.50;;;21.35;;
20348;SDS011;10332;50.208;18.988;2023-04-07T08:13:23;36.95;;;21.45;;
20348;SDS011;10332;50.208;18.988;2023-04-07T08:15:51;33.55;;;19.40;;
20348;SDS011;10332;50.208;18.988;2023-04-07T08:18:20;30.02;;;17.98;;
20348;SDS011;10332;50.208;18.988;2023-04-07T08:20:47;34.53;;;21.52;;
20348;SDS011;10332;50.208;18.988;2023-04-07T08:23:15;31.95;;;17.90;;
20348;SDS011;10332;50.208;18.988;2023-04-07T08:25:42;31.23;;;19.15;;
20348;SDS011;10332;50.208;18.988;2023-04-07T08:28:10;32.35;;;19.60;;
20348;SDS011;10332;50.208;18.988;2023-04-07T08:30:37;25.55;;;16.50;;
20348;SDS011;10332;50.208;18.988;2023-04-07T08:33:05;31.90;;;18.73;;
20348;SDS011;10332;50.208;18.988;2023-04-07T08:35:32;31.35;;;18.30;;
20348;SDS011;10332;50.208;18.988;2023-04-07T08:38:00;34.88;;;18.52;;
20348;SDS011;10332;50.208;18.988;2023-04-07T08:40:29;30.35;;;17.88;;
20348;SDS011;10332;50.208;18.988;2023-04-07T08:42:58;35.08;;;21.20;;
20348;SDS011;10332;50.208;18.988;2023-04-07T08:45:32;31.38;;;19.42;;
20348;SDS011;10332;50.208;18.988;2023-04-07T08:48:11;33.47;;;19.75;;
20348;SDS011;10332;50.208;18.988;2023-04-07T08:50:44;30.65;;;18.73;;
20348;SDS011;10332;50.208;18.988;2023-04-07T08:53:12;34.55;;;21.08;;
20348;SDS011;10332;50.208;18.988;2023-04-07T08:55:46;34.40;;;19.63;;
20348;SDS011;10332;50.208;18.988;2023-04-07T08:58:14;32.03;;;19.17;;
20348;SDS011;10332;50.208;18.988;2023-04-07T09:00:42;33.53;;;20.95;;
20348;SDS011;10332;50.208;18.988;2023-04-07T09:03:12;34.08;;;20.48;;
20348;SDS011;10332;50.208;18.988;2023-04-07T09:05:39;40.13;;;22.95;;
20348;SDS011;10332;50.208;18.988;2023-04-07T09:08:10;39.45;;;23.25;;
20348;SDS011;10332;50.208;18.988;2023-04-07T09:10:38;36.85;;;21.85;;
20348;SDS011;10332;50.208;18.988;2023-04-07T09:13:06;32.70;;;20.90;;
20348;SDS011;10332;50.208;18.988;2023-04-07T09:15:33;37.28;;;21.35;;
20348;SDS011;10332;50.208;18.988;2023-04-07T09:18:04;34.13;;;21.05;;
20348;SDS011;10332;50.208;18.988;2023-04-07T09:23:32;35.63;;;21.05;;
20348;SDS011;10332;50.208;18.988;2023-04-07T09:28:56;42.22;;;23.60;;
20348;SDS011;10332;50.208;18.988;2023-04-07T09:34:33;36.85;;;21.33;;
20348;SDS011;10332;50.208;18.988;2023-04-07T09:37:06;34.88;;;20.40;;
20348;SDS011;10332;50.208;18.988;2023-04-07T09:39:50;32.55;;;19.73;;
20348;SDS011;10332;50.208;18.988;2023-04-07T09:42:21;36.28;;;19.92;;
20348;SDS011;10332;50.208;18.988;2023-04-07T09:44:49;34.42;;;20.67;;
20348;SDS011;10332;50.208;18.988;2023-04-07T09:47:16;36.10;;;20.33;;
20348;SDS011;10332;50.208;18.988;2023-04-07T09:49:53;35.47;;;20.58;;
20348;SDS011;10332;50.208;18.988;2023-04-07T09:52:24;38.08;;;21.58;;
20348;SDS011;10332;50.208;18.988;2023-04-07T09:55:15;33.10;;;20.67;;
20348;SDS011;10332;50.208;18.988;2023-04-07T09:57:49;31.85;;;18.95;;
20348;SDS011;10332;50.208;18.988;2023-04-07T10:00:18;32.10;;;19.88;;
20348;SDS011;10332;50.208;18.988;2023-04-07T10:02:45;39.50;;;25.17;;
20348;SDS011;10332;50.208;18.988;2023-04-07T10:05:14;40.10;;;24.00;;
20348;SDS011;10332;50.208;18.988;2023-04-07T10:07:42;36.25;;;21.73;;
20348;SDS011;10332;50.208;18.988;2023-04-07T10:10:10;33.58;;;20.10;;
20348;SDS011;10332;50.208;18.988;2023-04-07T10:12:37;35.20;;;21.48;;
20348;SDS011;10332;50.208;18.988;2023-04-07T10:15:07;33.63;;;20.38;;
20348;SDS011;10332;50.208;18.988;2023-04-07T10:17:39;35.88;;;21.00;;
20348;SDS011;10332;50.208;18.988;2023-04-07T10:20:12;34.80;;;20.90;;
20348;SDS011;10332;50.208;18.988;2023-04-07T10:22:47;30.65;;;18.15;;
20348;SDS011;10332;50.208;18.988;2023-04-07T10:25:20;31.70;;;19.75;;
20348;SDS011;10332;50.208;18.988;2023-04-07T10:28:03;26.98;;;17.42;;
20348;SDS011;10332;50.208;18.988;2023-04-07T10:30:33;31.95;;;20.00;;
20348;SDS011;10332;50.208;18.988;2023-04-07T10:33:02;32.22;;;19.65;;
20348;SDS011;10332;50.208;18.988;2023-04-07T10:38:32;33.20;;;20.02;;
20348;SDS011;10332;50.208;18.988;2023-04-07T10:40:59;34.95;;;22.38;;
20348;SDS011;10332;50.208;18.988;2023-04-07T10:44:03;31.85;;;20.00;;
20348;SDS011;10332;50.208;18.988;2023-04-07T10:49:17;33.30;;;20.85;;
20348;SDS011;10332;50.208;18.988;2023-04-07T10:51:59;32.45;;;20.33;;
20348;SDS011;10332;50.208;18.988;2023-04-07T10:54:38;36.30;;;21.52;;
20348;SDS011;10332;50.208;18.988;2023-04-07T10:57:11;35.47;;;22.48;;
20348;SDS011;10332;50.208;18.988;2023-04-07T11:00:13;28.15;;;19.30;;
20348;SDS011;10332;50.208;18.988;2023-04-07T11:02:38;30.88;;;19.95;;
20348;SDS011;10332;50.208;18.988;2023-04-07T11:05:06;37.53;;;23.10;;
20348;SDS011;10332;50.208;18.988;2023-04-07T11:07:44;39.83;;;24.23;;
20348;SDS011;10332;50.208;18.988;2023-04-07T11:10:15;35.97;;;22.73;;
20348;SDS011;10332;50.208;18.988;2023-04-07T11:12:56;33.72;;;22.83;;
20348;SDS011;10332;50.208;18.988;2023-04-07T11:15:34;33.05;;;21.17;;
20348;SDS011;10332;50.208;18.988;2023-04-07T11:20:43;33.70;;;22.80;;
20348;SDS011;10332;50.208;18.988;2023-04-07T11:23:15;37.83;;;23.50;;
20348;SDS011;10332;50.208;18.988;2023-04-07T11:25:44;54.60;;;34.15;;
20348;SDS011;10332;50.208;18.988;2023-04-07T11:28:14;53.22;;;31.27;;
20348;SDS011;10332;50.208;18.988;2023-04-07T11:30:46;47.83;;;28.35;;
20348;SDS011;10332;50.208;18.988;2023-04-07T11:33:28;36.78;;;23.38;;
20348;SDS011;10332;50.208;18.988;2023-04-07T11:35:58;34.35;;;22.23;;
20348;SDS011;10332;50.208;18.988;2023-04-07T11:38:29;35.38;;;21.48;;
20348;SDS011;10332;50.208;18.988;2023-04-07T11:41:10;36.92;;;24.30;;
20348;SDS011;10332;50.208;18.988;2023-04-07T11:43:41;33.95;;;21.50;;
20348;SDS011;10332;50.208;18.988;2023-04-07T11:46:13;32.13;;;20.48;;
20348;SDS011;10332;50.208;18.988;2023-04-07T11:48:43;33.30;;;22.05;;
20348;SDS011;10332;50.208;18.988;2023-04-07T11:51:16;33.33;;;20.58;;
20348;SDS011;10332;50.208;18.988;2023-04-07T11:53:46;29.00;;;19.25;;
20348;SDS011;10332;50.208;18.988;2023-04-07T11:56:14;30.05;;;19.42;;
20348;SDS011;10332;50.208;18.988;2023-04-07T12:01:17;29.73;;;20.48;;
20348;SDS011;10332;50.208;18.988;2023-04-07T12:03:56;33.53;;;22.33;;
20348;SDS011;10332;50.208;18.988;2023-04-07T12:06:33;29.20;;;19.45;;
20348;SDS011;10332;50.208;18.988;2023-04-07T12:09:04;28.42;;;19.25;;
20348;SDS011;10332;50.208;18.988;2023-04-07T12:11:32;36.40;;;21.90;;
20348;SDS011;10332;50.208;18.988;2023-04-07T12:14:02;30.58;;;19.73;;
20348;SDS011;10332;50.208;18.988;2023-04-07T12:16:30;28.90;;;18.15;;
20348;SDS011;10332;50.208;18.988;2023-04-07T12:19:03;30.33;;;18.67;;
20348;SDS011;10332;50.208;18.988;2023-04-07T12:21:30;28.73;;;17.77;;
20348;SDS011;10332;50.208;18.988;2023-04-07T12:23:58;25.00;;;16.15;;
20348;SDS011;10332;50.208;18.988;2023-04-07T12:26:26;23.52;;;15.88;;
20348;SDS011;10332;50.208;18.988;2023-04-07T12:28:53;22.75;;;15.40;;
20348;SDS011;10332;50.208;18.988;2023-04-07T12:31:22;26.42;;;16.10;;
20348;SDS011;10332;50.208;18.988;2023-04-07T12:33:49;26.63;;;16.23;;
20348;SDS011;10332;50.208;18.988;2023-04-07T12:36:17;21.45;;;14.75;;
20348;SDS011;10332;50.208;18.988;2023-04-07T12:38:44;28.50;;;17.27;;
20348;SDS011;10332;50.208;18.988;2023-04-07T12:41:12;26.27;;;17.25;;
20348;SDS011;10332;50.208;18.988;2023-04-07T12:43:40;23.08;;;15.55;;
20348;SDS011;10332;50.208;18.988;2023-04-07T12:46:07;23.30;;;14.98;;
20348;SDS011;10332;50.208;18.988;2023-04-07T12:48:35;25.35;;;19.20;;
20348;SDS011;10332;50.208;18.988;2023-04-07T12:51:02;30.90;;;19.25;;
20348;SDS011;10332;50.208;18.988;2023-04-07T12:53:31;28.73;;;16.98;;
20348;SDS011;10332;50.208;18.988;2023-04-07T12:55:58;28.20;;;18.10;;
20348;SDS011;10332;50.208;18.988;2023-04-07T12:58:26;28.05;;;17.05;;
20348;SDS011;10332;50.208;18.988;2023-04-07T13:00:53;27.17;;;17.00;;
20348;SDS011;10332;50.208;18.988;2023-04-07T13:03:22;26.48;;;17.02;;
20348;SDS011;10332;50.208;18.988;2023-04-07T13:05:50;24.85;;;16.00;;
20348;SDS011;10332;50.208;18.988;2023-04-07T13:08:20;22.08;;;14.50;;
20348;SDS011;10332;50.208;18.988;2023-04-07T13:10:48;25.73;;;16.80;;
20348;SDS011;10332;50.208;18.988;2023-04-07T13:13:15;21.67;;;15.05;;
20348;SDS011;10332;50.208;18.988;2023-04-07T13:15:43;25.27;;;15.65;;
20348;SDS011;10332;50.208;18.988;2023-04-07T13:18:10;25.33;;;16.08;;
20348;SDS011;10332;50.208;18.988;2023-04-07T13:20:38;26.27;;;16.88;;
20348;SDS011;10332;50.208;18.988;2023-04-07T13:23:06;29.05;;;18.27;;
20348;SDS011;10332;50.208;18.988;2023-04-07T13:25:36;32.20;;;19.33;;
20348;SDS011;10332;50.208;18.988;2023-04-07T13:28:03;38.92;;;23.20;;
20348;SDS011;10332;50.208;18.988;2023-04-07T13:30:31;33.33;;;20.63;;
20348;SDS011;10332;50.208;18.988;2023-04-07T13:32:59;26.75;;;16.92;;
20348;SDS011;10332;50.208;18.988;2023-04-07T13:35:27;28.58;;;18.40;;
20348;SDS011;10332;50.208;18.988;2023-04-07T13:37:58;28.70;;;18.35;;
20348;SDS011;10332;50.208;18.988;2023-04-07T13:40:25;25.77;;;16.63;;
20348;SDS011;10332;50.208;18.988;2023-04-07T13:42:53;28.90;;;19.02;;
20348;SDS011;10332;50.208;18.988;2023-04-07T13:45:20;31.30;;;19.08;;
20348;SDS011;10332;50.208;18.988;2023-04-07T13:47:48;28.00;;;18.17;;
20348;SDS011;10332;50.208;18.988;2023-04-07T13:50:16;28.17;;;17.67;;
20348;SDS011;10332;50.208;18.988;2023-04-07T13:52:43;25.45;;;16.75;;
20348;SDS011;10332;50.208;18.988;2023-04-07T13:55:12;26.77;;;17.23;;
20348;SDS011;10332;50.208;18.988;2023-04-07T13:57:41;29.27;;;19.17;;
20348;SDS011;10332;50.208;18.988;2023-04-07T14:00:09;28.17;;;17.55;;
20348;SDS011;10332;50.208;18.988;2023-04-07T14:02:37;27.80;;;17.27;;
20348;SDS011;10332;50.208;18.988;2023-04-07T14:05:05;26.80;;;17.30;;
20348;SDS011;10332;50.208;18.988;2023-04-07T14:07:32;25.75;;;16.73;;
20348;SDS011;10332;50.208;18.988;2023-04-07T14:10:00;29.13;;;17.50;;
20348;SDS011;10332;50.208;18.988;2023-04-07T14:12:28;29.23;;;18.63;;
20348;SDS011;10332;50.208;18.988;2023-04-07T14:14:55;29.42;;;19.17;;
20348;SDS011;10332;50.208;18.988;2023-04-07T14:17:23;27.73;;;16.88;;
20348;SDS011;10332;50.208;18.988;2023-04-07T14:19:50;34.58;;;20.55;;
20348;SDS011;10332;50.208;18.988;2023-04-07T14:22:18;28.25;;;17.30;;
20348;SDS011;10332;50.208;18.988;2023-04-07T14:24:45;34.20;;;20.40;;
20348;SDS011;10332;50.208;18.988;2023-04-07T14:27:13;31.75;;;19.60;;
20348;SDS011;10332;50.208;18.988;2023-04-07T14:29:49;31.35;;;19.88;;
20348;SDS011;10332;50.208;18.988;2023-04-07T14:32:17;30.20;;;18.30;;
20348;SDS011;10332;50.208;18.988;2023-04-07T14:34:45;33.67;;;20.80;;
20348;SDS011;10332;50.208;18.988;2023-04-07T14:37:12;29.23;;;18.52;;
20348;SDS011;10332;50.208;18.988;2023-04-07T14:39:41;30.92;;;18.60;;
20348;SDS011;10332;50.208;18.988;2023-04-07T14:42:25;33.00;;;19.75;;
20348;SDS011;10332;50.208;18.988;2023-04-07T14:44:52;31.27;;;19.08;;
20348;SDS011;10332;50.208;18.988;2023-04-07T14:47:19;27.63;;;17.92;;
20348;SDS011;10332;50.208;18.988;2023-04-07T14:49:47;30.23;;;18.92;;
20348;SDS011;10332;50.208;18.988;2023-04-07T14:52:18;28.52;;;18.45;;